Time;durP1;ratioP1;P1;durP2;ratioP2;P2;SDS_P1;SDS_P2;PMS_P1;PMS_P2;Temp;Humidity;BMP_temperature;BMP_pressure;BME280_temperature;BME280_humidity;BME280_pressure;Samples;Min_cycle;Max_cycle;Signal;HPM_P1;HPM_P2
2021/01/05 00:00:03;;;;;;;0.98;0.50;;;20.80;40.30;;;;;;5046021;28;20044;-45
2021/01/05 00:02:29;;;;;;;0.73;0.40;;;20.80;39.70;;;;;;5042516;28;20033;-47
2021/01/05 00:04:54;;;;;;;1.10;0.52;;;20.80;39.70;;;;;;5034462;28;20316;-48
2021/01/05 00:07:20;;;;;;;0.80;0.30;;;20.80;39.70;;;;;;5043721;28;20630;-45
2021/01/05 00:09:45;;;;;;;0.85;0.38;;;20.70;39.70;;;;;;5035522;28;20389;-51
2021/01/05 00:12:14;;;;;;;0.65;0.30;;;20.80;39.70;;;;;;5033390;28;20036;-46
2021/01/05 00:14:41;;;;;;;0.70;0.40;;;20.70;39.70;;;;;;5044769;28;20025;-46
2021/01/05 00:17:08;;;;;;;0.70;0.30;;;20.70;39.70;;;;;;5042219;28;20508;-48
2021/01/05 00:19:34;;;;;;;0.85;0.40;;;20.70;39.70;;;;;;5044115;28;20051;-47
2021/01/05 00:22:00;;;;;;;0.68;0.30;;;20.70;39.70;;;;;;5042176;28;20116;-46
2021/01/05 00:24:25;;;;;;;0.70;0.40;;;20.60;40.20;;;;;;5041300;28;20042;-46
2021/01/05 00:26:51;;;;;;;0.55;0.30;;;20.60;39.70;;;;;;5041155;28;20013;-50
2021/01/05 00:29:17;;;;;;;0.95;0.30;;;20.60;39.80;;;;;;5029765;28;20107;-45
2021/01/05 00:31:42;;;;;;;1.23;0.47;;;20.60;39.80;;;;;;5049633;28;20043;-46
2021/01/05 00:34:08;;;;;;;0.43;0.22;;;20.60;39.80;;;;;;5046292;28;20604;-46
2021/01/05 00:36:35;;;;;;;0.68;0.30;;;20.60;39.80;;;;;;5047133;28;20382;-48
2021/01/05 00:39:03;;;;;;;0.85;0.40;;;20.50;39.80;;;;;;5043031;28;20041;-46
2021/01/05 00:41:28;;;;;;;0.70;0.40;;;20.50;39.80;;;;;;5042938;28;20489;-44
2021/01/05 00:43:54;;;;;;;1.38;0.40;;;20.50;39.80;;;;;;5032070;28;20025;-47
2021/01/05 00:46:19;;;;;;;0.90;0.35;;;20.50;39.80;;;;;;5040680;28;20113;-46
2021/01/05 00:48:46;;;;;;;1.17;0.30;;;20.40;39.80;;;;;;5047820;28;20482;-48
2021/01/05 00:51:13;;;;;;;0.57;0.30;;;20.40;39.80;;;;;;5045125;28;20063;-46
2021/01/05 00:53:39;;;;;;;0.70;0.43;;;20.40;39.90;;;;;;5046316;28;20029;-46
2021/01/05 00:56:06;;;;;;;0.65;0.30;;;20.40;39.90;;;;;;5043005;28;20124;-46
2021/01/05 00:58:31;;;;;;;1.30;0.28;;;20.40;39.80;;;;;;5045472;28;20030;-45
2021/01/05 01:00:57;;;;;;;0.60;0.32;;;20.40;39.80;;;;;;5039552;28;20049;-49
2021/01/05 01:03:23;;;;;;;0.63;0.30;;;20.30;39.80;;;;;;5042410;28;20110;-46
2021/01/05 01:05:49;;;;;;;0.80;0.40;;;20.30;39.80;;;;;;5042908;28;20051;-48
2021/01/05 01:08:17;;;;;;;1.13;0.52;;;20.40;39.90;;;;;;5035277;28;20033;-46
2021/01/05 01:10:42;;;;;;;1.17;0.45;;;20.30;39.80;;;;;;5036006;28;20601;-46
2021/01/05 01:13:09;;;;;;;0.68;0.40;;;20.30;39.80;;;;;;5031489;28;20036;-46
2021/01/05 01:15:35;;;;;;;1.60;0.40;;;20.30;39.80;;;;;;5039230;28;20081;-47
2021/01/05 01:18:01;;;;;;;0.77;0.38;;;20.20;39.80;;;;;;5036619;28;20124;-48
2021/01/05 01:20:27;;;;;;;1.05;0.30;;;20.20;39.90;;;;;;5046099;28;20039;-47
2021/01/05 01:22:52;;;;;;;0.70;0.30;;;20.20;39.90;;;;;;5044897;28;20031;-48
2021/01/05 01:25:18;;;;;;;1.05;0.30;;;20.20;40.00;;;;;;5037455;28;20025;-44
2021/01/05 01:27:44;;;;;;;1.42;0.40;;;20.20;39.90;;;;;;5031968;28;20028;-46
2021/01/05 01:30:11;;;;;;;0.70;0.40;;;20.10;39.70;;;;;;5044057;28;20104;-44
2021/01/05 01:32:37;;;;;;;0.88;0.47;;;20.20;39.80;;;;;;5046018;28;20520;-49
2021/01/05 01:35:05;;;;;;;0.90;0.50;;;20.20;39.80;;;;;;5041846;28;20053;-46
2021/01/05 01:37:30;;;;;;;0.70;0.35;;;20.20;39.70;;;;;;5046487;28;20036;-41
2021/01/05 01:39:56;;;;;;;0.93;0.35;;;20.20;39.60;;;;;;5043304;28;20017;-48
2021/01/05 01:42:22;;;;;;;2.05;0.30;;;20.20;39.70;;;;;;5037349;28;20056;-47
2021/01/05 01:44:49;;;;;;;0.63;0.30;;;20.20;39.70;;;;;;5042763;28;20159;-48
2021/01/05 01:47:21;;;;;;;0.93;0.40;;;20.10;39.60;;;;;;5045497;28;20651;-46
2021/01/05 01:49:50;;;;;;;0.73;0.30;;;20.10;39.80;;;;;;5048734;28;20445;-48
2021/01/05 01:52:27;;;;;;;1.02;0.60;;;20.10;39.70;;;;;;5041919;28;20036;-44
2021/01/05 01:54:58;;;;;;;1.45;0.50;;;20.00;39.80;;;;;;5040652;28;20626;-46
2021/01/05 01:57:32;;;;;;;0.90;0.45;;;20.10;39.80;;;;;;5049821;28;20059;-47
2021/01/05 02:00:33;;;;;;;1.10;0.52;;;20.00;39.80;;;;;;5050394;28;20476;-45
2021/01/05 02:03:29;;;;;;;1.52;0.30;;;19.90;39.60;;;;;;5013211;28;20042;-47
2021/01/05 02:06:07;;;;;;;0.73;0.47;;;20.00;39.80;;;;;;5043344;28;20024;-46
2021/01/05 02:08:41;;;;;;;0.98;0.40;;;19.90;39.90;;;;;;5045923;28;20537;-45
2021/01/05 02:11:18;;;;;;;0.93;0.35;;;20.00;39.70;;;;;;5047569;28;20108;-48
2021/01/05 02:13:58;;;;;;;1.10;0.60;;;19.90;39.80;;;;;;5039224;28;20131;-47
2021/01/05 02:16:48;;;;;;;2.50;0.40;;;19.90;39.80;;;;;;5041831;28;20033;-49
2021/01/05 02:19:24;;;;;;;0.80;0.30;;;19.90;39.70;;;;;;5045685;28;20186;-42
2021/01/05 02:22:13;;;;;;;0.98;0.65;;;19.90;39.80;;;;;;5048713;28;20324;-44
2021/01/05 02:24:49;;;;;;;1.60;0.50;;;19.80;39.70;;;;;;5047556;28;20029;-47
2021/01/05 02:27:15;;;;;;;0.80;0.40;;;19.80;39.60;;;;;;5060806;28;20044;-48
2021/01/05 02:29:49;;;;;;;1.10;0.60;;;19.90;39.70;;;;;;5042299;28;20091;-44
2021/01/05 02:32:20;;;;;;;0.80;0.40;;;19.80;39.90;;;;;;5048734;28;20116;-44
2021/01/05 02:35:46;;;;;;;1.25;0.60;;;19.80;39.80;;;;;;5045241;28;20033;-46
2021/01/05 02:38:48;;;;;;;0.90;0.68;;;19.70;39.80;;;;;;5025124;28;20064;-47
2021/01/05 02:41:36;;;;;;;1.17;0.45;;;19.70;39.90;;;;;;5022831;28;20056;-45
2021/01/05 02:44:18;;;;;;;1.20;0.45;;;19.70;39.70;;;;;;5045693;28;20044;-46
2021/01/05 02:46:55;;;;;;;1.00;0.40;;;19.70;40.00;;;;;;5044645;28;20048;-47
2021/01/05 02:49:47;;;;;;;2.15;0.40;;;19.70;40.00;;;;;;5047483;28;20025;-47
2021/01/05 02:52:24;;;;;;;0.90;0.70;;;19.70;39.90;;;;;;5046555;28;20052;-47
2021/01/05 02:55:29;;;;;;;2.63;0.50;;;19.70;40.00;;;;;;5039720;28;20029;-46
2021/01/05 02:58:42;;;;;;;1.67;0.47;;;19.70;39.90;;;;;;5048434;28;20033;-43
2021/01/05 03:01:24;;;;;;;0.70;0.52;;;19.60;40.00;;;;;;4993707;28;20064;-48
2021/01/05 03:03:50;;;;;;;0.77;0.40;;;19.60;39.70;;;;;;5006567;28;20441;-45
2021/01/05 03:06:36;;;;;;;0.93;0.65;;;19.60;39.90;;;;;;5027821;28;20155;-48
2021/01/05 03:09:33;;;;;;;0.80;0.50;;;19.60;39.90;;;;;;5039886;28;20025;-44
2021/01/05 03:12:10;;;;;;;1.65;0.63;;;19.60;39.90;;;;;;5031473;28;20037;-46
2021/01/05 03:14:45;;;;;;;2.08;0.60;;;19.60;39.90;;;;;;5036487;28;20097;-43
2021/01/05 03:17:33;;;;;;;1.15;0.70;;;19.60;39.90;;;;;;5044064;28;20328;-47
2021/01/05 03:20:01;;;;;;;0.98;0.63;;;19.60;39.70;;;;;;5044393;28;20037;-44
2021/01/05 03:22:30;;;;;;;1.10;0.90;;;19.60;40.00;;;;;;5043709;28;20087;-48
2021/01/05 03:24:58;;;;;;;0.90;0.60;;;19.50;39.80;;;;;;5040524;28;20098;-43
2021/01/05 03:27:24;;;;;;;1.20;0.80;;;19.50;40.00;;;;;;5041822;28;20025;-45
2021/01/05 03:30:04;;;;;;;1.20;0.68;;;19.50;40.00;;;;;;5025601;22;20030;-81
2021/01/05 03:32:30;;;;;;;1.30;0.60;;;19.50;39.90;;;;;;5013166;28;20025;-80
2021/01/05 03:34:56;;;;;;;1.55;1.00;;;19.50;40.00;;;;;;5033360;28;20119;-81
2021/01/05 03:37:21;;;;;;;2.05;0.50;;;19.50;40.00;;;;;;5011057;28;20029;-81
2021/01/05 03:39:47;;;;;;;2.28;0.80;;;19.50;40.10;;;;;;5009022;28;20034;-81
2021/01/05 03:42:12;;;;;;;1.40;0.80;;;19.50;40.10;;;;;;5015387;28;20018;-81
2021/01/05 03:44:38;;;;;;;1.25;0.50;;;19.50;40.00;;;;;;5015164;28;20045;-80
2021/01/05 03:47:03;;;;;;;1.63;0.70;;;19.40;40.10;;;;;;5020392;28;20741;-80
2021/01/05 03:49:29;;;;;;;1.08;0.75;;;19.40;40.10;;;;;;5013036;28;20038;-81
2021/01/05 03:51:54;;;;;;;1.42;1.02;;;19.40;40.00;;;;;;4999056;28;20022;-81
2021/01/05 03:54:22;;;;;;;1.50;1.00;;;19.40;39.90;;;;;;5014506;28;20447;-83
2021/01/05 03:56:49;;;;;;;1.27;0.60;;;19.40;40.00;;;;;;5009858;28;20455;-81
2021/01/05 03:59:15;;;;;;;0.90;0.70;;;19.40;39.90;;;;;;5009681;28;20034;-81
2021/01/05 04:01:52;;;;;;;1.35;0.90;;;19.40;40.10;;;;;;4989504;28;20031;-81
2021/01/05 04:04:18;;;;;;;1.10;0.85;;;19.40;40.00;;;;;;4989561;28;20059;-81
2021/01/05 04:06:44;;;;;;;1.20;0.73;;;19.40;40.00;;;;;;5013119;28;20033;-80
2021/01/05 04:09:09;;;;;;;1.20;0.75;;;19.40;39.80;;;;;;4995718;28;20031;-81
2021/01/05 04:11:35;;;;;;;1.33;0.93;;;19.40;40.00;;;;;;5004536;28;20018;-81
2021/01/05 04:14:01;;;;;;;1.10;0.90;;;19.40;39.90;;;;;;5013668;28;20077;-81
2021/01/05 04:16:26;;;;;;;1.75;0.98;;;19.30;39.80;;;;;;4997757;28;20068;-80
2021/01/05 04:18:52;;;;;;;1.20;0.85;;;19.40;39.90;;;;;;5002019;28;20030;-82
2021/01/05 04:21:17;;;;;;;1.17;0.73;;;19.30;39.90;;;;;;5002412;28;20039;-83
2021/01/05 04:23:43;;;;;;;1.33;0.85;;;19.30;39.90;;;;;;5014433;28;20026;-81
2021/01/05 04:26:09;;;;;;;1.50;0.90;;;19.30;39.90;;;;;;4993990;28;20158;-81
2021/01/05 04:28:35;;;;;;;1.45;1.05;;;19.30;39.80;;;;;;5004322;28;20018;-81
2021/01/05 04:31:00;;;;;;;1.15;0.73;;;19.30;39.80;;;;;;4994101;28;20042;-81
2021/01/05 04:33:26;;;;;;;0.90;0.60;;;19.30;40.00;;;;;;5022030;28;20466;-82
2021/01/05 04:35:52;;;;;;;1.38;0.90;;;19.30;39.90;;;;;;5012112;28;20476;-80
2021/01/05 04:38:17;;;;;;;1.63;0.85;;;19.30;40.00;;;;;;4999963;28;20066;-81
2021/01/05 04:40:46;;;;;;;1.33;0.68;;;19.30;39.90;;;;;;5010395;28;20038;-81
2021/01/05 04:43:22;;;;;;;1.13;0.95;;;19.30;39.90;;;;;;4993393;28;20022;-80
2021/01/05 04:45:53;;;;;;;1.25;1.13;;;19.20;39.90;;;;;;5009761;28;20029;-81
2021/01/05 04:48:44;;;;;;;1.70;0.90;;;19.30;40.00;;;;;;5000157;28;20056;-80
2021/01/05 04:51:34;;;;;;;0.93;0.75;;;19.30;39.90;;;;;;5028282;28;20026;-80
2021/01/05 04:54:04;;;;;;;1.13;1.02;;;19.20;39.90;;;;;;4998821;28;20030;-80
2021/01/05 04:56:53;;;;;;;1.20;0.73;;;19.20;40.10;;;;;;4989707;28;20022;-81
2021/01/05 04:59:23;;;;;;;1.40;1.10;;;19.20;39.80;;;;;;5009374;28;20022;-81
2021/01/05 05:01:50;;;;;;;1.70;0.43;;;19.20;39.90;;;;;;5006803;28;20045;-81
2021/01/05 05:04:38;;;;;;;2.28;1.00;;;19.20;39.90;;;;;;5004287;28;20025;-81
2021/01/05 05:07:25;;;;;;;1.15;0.80;;;19.20;39.90;;;;;;4982002;28;20026;-81
2021/01/05 05:10:17;;;;;;;1.65;1.02;;;19.20;39.90;;;;;;4998980;28;20022;-81
2021/01/05 05:12:59;;;;;;;2.60;1.10;;;19.20;40.00;;;;;;5021708;28;20033;-80
2021/01/05 05:15:49;;;;;;;1.80;0.63;;;19.20;39.90;;;;;;5008671;28;20068;-81
2021/01/05 05:18:40;;;;;;;2.33;1.10;;;19.20;39.90;;;;;;5025868;28;20038;-80
2021/01/05 05:21:15;;;;;;;1.33;0.80;;;19.10;39.80;;;;;;5015556;28;20035;-81
2021/01/05 05:23:52;;;;;;;1.75;0.95;;;19.10;40.10;;;;;;5018554;28;20030;-81
2021/01/05 05:26:39;;;;;;;1.60;1.15;;;19.10;40.00;;;;;;5028239;28;20521;-81
2021/01/05 05:29:22;;;;;;;1.30;1.08;;;19.10;39.90;;;;;;5016069;28;20064;-80
2021/01/05 05:31:50;;;;;;;1.60;1.20;;;19.10;39.90;;;;;;5024379;28;20085;-81
2021/01/05 05:34:36;;;;;;;0.70;0.50;;;19.10;40.00;;;;;;4994489;28;20036;-80
2021/01/05 05:37:02;;;;;;;1.20;0.75;;;19.10;40.50;;;;;;5014921;28;20018;-80
2021/01/05 05:39:53;;;;;;;1.70;1.20;;;19.10;40.00;;;;;;5011573;28;20374;-81
2021/01/05 05:42:43;;;;;;;3.17;1.57;;;19.10;40.00;;;;;;5012206;28;20030;-80
2021/01/05 05:45:23;;;;;;;2.17;1.35;;;19.10;39.90;;;;;;5000283;28;20027;-80
2021/01/05 05:48:16;;;;;;;2.05;0.90;;;19.10;40.50;;;;;;5008122;28;20375;-80
2021/01/05 05:51:07;;;;;;;1.15;0.75;;;19.10;40.10;;;;;;5011550;28;20086;-80
2021/01/05 05:54:10;;;;;;;2.03;1.27;;;19.00;39.90;;;;;;5032559;28;20034;-80
2021/01/05 05:56:52;;;;;;;1.30;1.00;;;19.00;40.00;;;;;;5013282;28;20033;-79
2021/01/05 05:59:19;;;;;;;;;;;19.00;40.00;;;;;;4999128;28;20606;-80
2021/01/05 06:01:47;;;;;;;1.55;1.10;;;19.00;39.90;;;;;;4991334;28;19913;-80
2021/01/05 06:04:14;;;;;;;1.33;1.08;;;19.00;39.70;;;;;;5008526;28;20088;-80
2021/01/05 06:06:41;;;;;;;1.38;1.05;;;19.00;39.80;;;;;;5015794;28;20033;-80
2021/01/05 06:09:08;;;;;;;1.88;1.13;;;19.00;40.00;;;;;;5007750;28;20056;-80
2021/01/05 06:11:33;;;;;;;1.30;0.88;;;19.10;40.40;;;;;;5015269;28;20024;-80
2021/01/05 06:14:01;;;;;;;1.90;1.25;;;19.20;40.30;;;;;;4999092;28;20030;-81
2021/01/05 06:16:30;;;;;;;1.42;0.73;;;19.30;40.00;;;;;;5014823;28;20125;-80
2021/01/05 06:18:56;;;;;;;1.65;0.90;;;19.40;39.80;;;;;;5005095;28;20022;-81
2021/01/05 06:21:21;;;;;;;2.22;0.90;;;19.60;39.60;;;;;;4998916;28;20378;-81
2021/01/05 06:23:47;;;;;;;1.50;0.93;;;19.70;39.40;;;;;;5000155;28;20032;-80
2021/01/05 06:26:18;;;;;;;1.30;0.90;;;19.80;39.30;;;;;;4998759;28;20018;-81
2021/01/05 06:28:44;;;;;;;1.52;0.90;;;19.90;39.10;;;;;;5005031;28;20104;-81
2021/01/05 06:31:10;;;;;;;1.30;1.08;;;20.00;39.10;;;;;;5012887;28;20040;-80
2021/01/05 06:33:36;;;;;;;0.93;0.80;;;20.00;38.90;;;;;;5020061;28;20392;-80
2021/01/05 06:36:02;;;;;;;1.88;1.05;;;20.00;38.90;;;;;;5015137;28;20120;-81
2021/01/05 06:38:27;;;;;;;1.02;0.50;;;20.10;38.90;;;;;;5009004;28;20104;-81
2021/01/05 06:40:53;;;;;;;0.90;0.60;;;20.10;38.80;;;;;;5025645;28;20069;-80
2021/01/05 06:43:18;;;;;;;1.17;0.70;;;20.10;38.80;;;;;;5023591;28;20469;-81
2021/01/05 06:45:44;;;;;;;1.30;0.75;;;20.10;38.80;;;;;;5028971;28;20042;-81
2021/01/05 06:48:10;;;;;;;1.48;0.90;;;20.20;38.80;;;;;;5015226;28;20034;-81
2021/01/05 06:50:35;;;;;;;1.10;0.68;;;20.20;38.80;;;;;;5031301;28;20030;-80
2021/01/05 06:53:01;;;;;;;1.17;1.00;;;20.20;38.80;;;;;;5002224;28;20038;-80
2021/01/05 06:55:27;;;;;;;1.98;1.08;;;20.20;38.70;;;;;;5009462;28;20037;-82
2021/01/05 06:57:53;;;;;;;1.63;0.85;;;20.30;38.70;;;;;;5015800;28;20044;-80
2021/01/05 07:00:26;;;;;;;1.40;1.10;;;20.30;38.60;;;;;;5013528;28;20034;-81
2021/01/05 07:02:53;;;;;;;1.00;0.75;;;20.40;38.60;;;;;;5029456;28;20026;-81
2021/01/05 07:05:19;;;;;;;1.15;0.80;;;20.40;38.60;;;;;;5002809;28;20034;-81
2021/01/05 07:07:45;;;;;;;1.95;0.70;;;20.40;38.50;;;;;;5030523;28;20104;-80
2021/01/05 07:10:12;;;;;;;1.27;0.80;;;20.50;38.50;;;;;;5014370;28;20038;-80
2021/01/05 07:12:38;;;;;;;1.05;0.90;;;20.50;38.60;;;;;;4995658;28;20381;-81
2021/01/05 07:15:07;;;;;;;1.33;0.75;;;20.50;38.60;;;;;;5005612;28;20049;-81
2021/01/05 07:17:33;;;;;;;1.48;0.93;;;20.50;38.60;;;;;;5007895;28;20030;-80
2021/01/05 07:19:58;;;;;;;1.50;1.13;;;20.50;38.60;;;;;;5009575;28;20034;-82
2021/01/05 07:22:24;;;;;;;1.05;0.80;;;20.50;38.60;;;;;;5001493;28;20095;-82
2021/01/05 07:24:49;;;;;;;1.40;1.20;;;20.50;38.70;;;;;;5015700;28;20026;-81
2021/01/05 07:27:15;;;;;;;1.67;1.38;;;20.40;38.70;;;;;;4996721;28;20304;-80
2021/01/05 07:29:41;;;;;;;1.63;1.05;;;20.40;38.80;;;;;;5002286;28;20038;-81
2021/01/05 07:32:06;;;;;;;1.85;1.27;;;20.30;38.90;;;;;;5001358;28;20044;-81
2021/01/05 07:34:37;;;;;;;1.60;1.08;;;20.30;38.90;;;;;;5000800;28;20042;-81
2021/01/05 07:37:09;;;;;;;1.95;1.35;;;20.30;38.90;;;;;;4992537;28;20045;-82
2021/01/05 07:39:34;;;;;;;1.95;1.30;;;20.30;39.10;;;;;;4997191;28;20026;-80
2021/01/05 07:42:14;;;;;;;1.45;1.33;;;20.20;39.10;;;;;;5011943;28;20030;-80
2021/01/05 07:44:41;;;;;;;2.10;1.58;;;20.20;39.20;;;;;;5011970;28;20104;-80
2021/01/05 07:47:07;;;;;;;1.75;1.52;;;20.20;39.20;;;;;;5015012;28;20038;-79
2021/01/05 07:49:34;;;;;;;3.13;1.83;;;20.10;39.30;;;;;;5012717;28;20029;-81
2021/01/05 07:51:59;;;;;;;2.05;1.60;;;20.10;39.30;;;;;;4996944;28;20040;-80
2021/01/05 07:54:25;;;;;;;3.00;1.65;;;20.10;39.40;;;;;;5014324;28;20033;-81
2021/01/05 07:56:50;;;;;;;2.00;1.30;;;20.00;39.40;;;;;;4998777;28;20116;-80
2021/01/05 07:59:18;;;;;;;4.28;1.60;;;20.00;39.40;;;;;;4999547;28;20100;-80
2021/01/05 08:01:47;;;;;;;2.15;1.25;;;19.90;39.50;;;;;;4991047;28;20105;-85
2021/01/05 08:04:12;;;;;;;3.78;1.55;;;19.90;39.60;;;;;;4998461;28;20026;-83
2021/01/05 08:06:42;;;;;;;2.00;1.63;;;19.90;39.70;;;;;;5014837;28;20026;-83
2021/01/05 08:09:08;;;;;;;2.08;1.55;;;19.90;39.70;;;;;;5015158;28;20026;-82
2021/01/05 08:11:38;;;;;;;3.13;2.13;;;19.80;39.70;;;;;;4982682;28;20086;-83
2021/01/05 08:14:04;;;;;;;2.75;2.00;;;19.80;39.70;;;;;;5013518;28;20092;-82
2021/01/05 08:16:30;;;;;;;2.97;2.45;;;19.80;39.60;;;;;;4994936;28;20093;-82
2021/01/05 08:18:56;;;;;;;3.42;2.10;;;19.80;39.60;;;;;;4993780;28;20117;-83
2021/01/05 08:21:23;;;;;;;3.47;2.47;;;19.80;39.60;;;;;;5023246;28;20093;-83
2021/01/05 08:23:48;;;;;;;4.30;2.75;;;19.80;39.40;;;;;;4997687;28;20026;-83
2021/01/05 08:26:14;;;;;;;4.85;2.65;;;19.80;39.30;;;;;;5001056;28;20330;-83
2021/01/05 08:28:40;;;;;;;3.28;2.10;;;20.00;39.20;;;;;;4998492;28;20093;-82
2021/01/05 08:31:05;;;;;;;3.10;2.30;;;20.00;39.10;;;;;;5014485;28;20091;-81
2021/01/05 08:33:31;;;;;;;3.25;2.20;;;20.10;39.00;;;;;;5014581;28;20037;-82
2021/01/05 08:35:57;;;;;;;2.92;2.20;;;20.10;39.50;;;;;;5011394;28;20100;-82
2021/01/05 08:38:22;;;;;;;4.22;1.88;;;20.20;38.90;;;;;;4997770;28;20041;-82
2021/01/05 08:40:48;;;;;;;4.35;2.28;;;20.20;38.70;;;;;;5009793;28;20032;-82
2021/01/05 08:43:13;;;;;;;2.58;2.00;;;20.30;38.60;;;;;;4989006;28;20028;-83
2021/01/05 08:45:40;;;;;;;2.10;1.90;;;20.40;38.50;;;;;;5012216;28;20465;-84
2021/01/05 08:48:06;;;;;;;2.30;1.70;;;20.50;38.40;;;;;;4994485;28;20027;-83
2021/01/05 08:50:32;;;;;;;2.90;2.10;;;20.60;38.40;;;;;;5003527;28;20113;-82
2021/01/05 08:53:04;;;;;;;3.05;2.75;;;20.60;38.40;;;;;;5004406;28;20022;-83
2021/01/05 08:55:33;;;;;;;2.67;2.47;;;20.70;38.20;;;;;;5013711;28;20037;-83
2021/01/05 08:57:58;;;;;;;3.53;2.55;;;20.60;38.20;;;;;;5005577;28;20041;-85
2021/01/05 09:00:24;;;;;;;3.83;2.80;;;20.60;38.20;;;;;;4997243;28;20029;-83
2021/01/05 09:02:50;;;;;;;3.08;2.70;;;20.60;38.30;;;;;;5010013;28;20034;-83
2021/01/05 09:05:16;;;;;;;3.42;2.85;;;20.60;38.30;;;;;;4981579;28;20030;-83
2021/01/05 09:07:42;;;;;;;3.13;2.83;;;20.60;38.30;;;;;;4998081;28;20080;-84
2021/01/05 09:10:13;;;;;;;3.65;2.60;;;20.70;38.10;;;;;;5007243;28;20034;-83
2021/01/05 09:12:39;;;;;;;4.07;2.97;;;20.70;38.00;;;;;;5006649;28;20048;-83
2021/01/05 09:15:06;;;;;;;3.05;2.58;;;20.80;38.00;;;;;;5010364;28;20420;-85
2021/01/05 09:17:31;;;;;;;3.47;2.70;;;20.80;37.90;;;;;;5014109;28;20519;-84
2021/01/05 09:19:57;;;;;;;4.85;3.60;;;20.90;38.00;;;;;;4991640;28;20042;-83
2021/01/05 09:22:25;;;;;;;3.78;3.20;;;20.90;37.90;;;;;;4996516;28;20061;-83
2021/01/05 09:24:51;;;;;;;7.43;3.55;;;20.90;37.90;;;;;;5002208;28;20030;-81
2021/01/05 09:27:17;;;;;;;3.53;2.97;;;20.90;37.90;;;;;;4993425;28;20033;-85
2021/01/05 09:29:43;;;;;;;3.60;2.88;;;20.90;37.90;;;;;;5008336;28;20091;-82
2021/01/05 09:32:32;;;;;;;4.03;2.80;;;21.00;38.00;;;;;;5005895;28;20511;-83
2021/01/05 09:35:17;;;;;;;4.80;3.45;;;21.00;38.50;;;;;;5007716;28;20037;-83
2021/01/05 09:38:01;;;;;;;3.92;3.15;;;21.10;38.00;;;;;;5011962;28;20064;-84
2021/01/05 09:40:45;;;;;;;3.90;2.85;;;21.10;38.10;;;;;;5008254;28;20129;-84
2021/01/05 09:43:13;;;;;;;5.13;3.58;;;21.10;38.10;;;;;;4991979;28;20034;-83
2021/01/05 09:45:40;;;;;;;5.15;3.90;;;21.20;38.20;;;;;;5006535;28;20029;-83
2021/01/05 09:48:10;;;;;;;3.42;3.10;;;21.20;38.20;;;;;;5004310;28;20034;-84
2021/01/05 09:50:38;;;;;;;4.15;3.05;;;21.30;38.10;;;;;;4988992;28;20080;-82
2021/01/05 09:53:04;;;;;;;4.45;3.67;;;21.30;38.10;;;;;;5013479;28;20022;-82
2021/01/05 09:55:31;;;;;;;5.22;3.33;;;21.40;38.00;;;;;;4999008;28;20032;-83
2021/01/05 09:57:57;;;;;;;6.65;3.45;;;21.40;38.30;;;;;;5005195;28;20095;-83
2021/01/05 10:00:23;;;;;;;3.75;3.33;;;21.40;38.10;;;;;;5030710;28;20026;-83
2021/01/05 10:02:49;;;;;;;4.30;3.45;;;21.40;38.20;;;;;;4996904;28;20097;-83
2021/01/05 10:05:15;;;;;;;4.32;3.22;;;21.40;38.20;;;;;;4997490;28;20033;-85
2021/01/05 10:07:41;;;;;;;4.35;3.15;;;21.40;38.10;;;;;;5013456;28;20636;-85
2021/01/05 10:10:13;;;;;;;6.38;3.50;;;21.30;38.30;;;;;;5012893;28;20061;-85
2021/01/05 10:12:38;;;;;;;;;;;21.30;38.40;;;;;;4997306;28;20093;-83
2021/01/05 10:15:05;;;;;;;3.35;2.78;;;21.30;38.60;;;;;;5003800;28;20395;-84
2021/01/05 10:17:30;;;;;;;6.68;3.38;;;21.20;38.70;;;;;;5011572;28;20113;-85
2021/01/05 10:19:56;;;;;;;4.15;2.70;;;21.30;38.70;;;;;;5014014;28;20081;-84
2021/01/05 10:22:22;;;;;;;4.32;2.80;;;21.10;38.70;;;;;;4999731;28;20631;-83
2021/01/05 10:24:48;;;;;;;6.60;3.60;;;21.10;39.00;;;;;;4997126;28;20109;-83
2021/01/05 10:27:14;;;;;;;4.43;3.17;;;21.10;39.00;;;;;;5010876;28;20396;-83
2021/01/05 10:29:39;;;;;;;8.40;3.33;;;21.10;39.00;;;;;;4997562;28;20054;-85
2021/01/05 10:32:05;;;;;;;5.40;3.38;;;21.10;39.10;;;;;;5030509;28;20156;-84
2021/01/05 10:34:30;;;;;;;4.70;3.13;;;21.10;39.20;;;;;;4999404;28;20030;-85
2021/01/05 10:36:58;;;;;;;4.63;3.72;;;21.10;39.30;;;;;;4997808;28;20026;-84
2021/01/05 10:39:25;;;;;;;4.72;3.13;;;21.10;39.30;;;;;;5004297;28;20030;-85
2021/01/05 10:41:51;;;;;;;6.10;3.53;;;21.10;39.30;;;;;;4986056;28;20022;-84
2021/01/05 10:44:19;;;;;;;5.20;2.88;;;21.10;39.40;;;;;;4994268;28;20034;-83
2021/01/05 10:46:45;;;;;;;3.58;2.85;;;21.00;39.40;;;;;;5011602;28;20471;-84
2021/01/05 10:49:10;;;;;;;5.55;3.05;;;21.00;39.50;;;;;;5009910;28;20077;-82
2021/01/05 10:51:47;;;;;;;4.53;3.28;;;21.00;39.50;;;;;;4999401;28;20050;-86
2021/01/05 10:54:15;;;;;;;4.32;2.75;;;21.00;39.60;;;;;;4993952;28;20060;-86
2021/01/05 10:56:40;;;;;;;3.97;3.30;;;20.90;39.90;;;;;;4995146;28;20029;-84
2021/01/05 10:59:06;;;;;;;4.57;2.92;;;20.90;40.00;;;;;;5001421;28;20161;-82
2021/01/05 11:01:31;;;;;;;4.57;3.35;;;20.80;40.00;;;;;;5012798;28;20037;-83
2021/01/05 11:03:57;;;;;;;4.07;2.92;;;20.80;39.80;;;;;;4998623;28;20014;-82
2021/01/05 11:06:22;;;;;;;4.43;3.10;;;20.90;39.90;;;;;;5002866;28;20465;-81
2021/01/05 11:08:48;;;;;;;4.93;2.95;;;20.90;39.80;;;;;;5013801;28;20037;-80
2021/01/05 11:11:16;;;;;;;3.65;2.50;;;21.10;39.60;;;;;;4995300;28;20041;-82
2021/01/05 11:13:43;;;;;;;3.50;2.20;;;21.20;39.50;;;;;;5015985;28;20052;-82
2021/01/05 11:16:08;;;;;;;3.17;2.40;;;21.20;39.40;;;;;;5016364;28;20415;-82
2021/01/05 11:18:34;;;;;;;2.92;2.58;;;21.30;39.40;;;;;;5001375;28;20037;-84
2021/01/05 11:21:00;;;;;;;3.17;2.40;;;21.40;39.30;;;;;;5013332;28;20388;-83
2021/01/05 11:23:25;;;;;;;4.90;3.30;;;21.40;39.10;;;;;;5015965;28;20033;-83
2021/01/05 11:25:51;;;;;;;5.47;3.28;;;21.50;39.10;;;;;;5020115;28;20033;-83
2021/01/05 11:28:16;;;;;;;3.08;2.28;;;21.50;39.00;;;;;;5011350;28;20061;-82
2021/01/05 11:30:42;;;;;;;3.65;2.25;;;21.60;39.10;;;;;;4999803;28;20110;-84
2021/01/05 11:33:07;;;;;;;2.88;2.10;;;21.60;39.10;;;;;;5017467;28;20025;-84
2021/01/05 11:35:34;;;;;;;3.17;2.22;;;21.60;39.00;;;;;;4991003;28;20080;-83
2021/01/05 11:38:00;;;;;;;3.63;2.50;;;21.60;39.00;;;;;;4997895;28;20109;-82
2021/01/05 11:40:25;;;;;;;2.85;2.15;;;21.60;39.00;;;;;;5029780;28;20022;-84
2021/01/05 11:42:51;;;;;;;3.55;2.05;;;21.70;39.10;;;;;;4996147;28;20029;-84
2021/01/05 11:45:17;;;;;;;3.38;2.63;;;21.70;39.10;;;;;;5008875;28;20114;-85
2021/01/05 11:47:43;;;;;;;4.55;1.77;;;21.70;39.10;;;;;;5007979;28;20661;-84
2021/01/05 11:50:10;;;;;;;3.08;2.40;;;21.70;39.20;;;;;;5020813;28;20044;-84
2021/01/05 11:52:39;;;;;;;3.28;2.03;;;21.70;39.20;;;;;;5010485;28;20026;-84
2021/01/05 11:55:07;;;;;;;4.78;2.35;;;21.70;39.20;;;;;;5011082;28;20030;-83
2021/01/05 11:57:33;;;;;;;1.95;1.85;;;21.60;39.10;;;;;;5010084;28;20035;-82
2021/01/05 11:59:58;;;;;;;3.42;2.17;;;21.70;39.00;;;;;;4996456;28;20040;-83
2021/01/05 12:02:24;;;;;;;2.88;2.03;;;21.70;39.20;;;;;;4994986;28;20491;-81
2021/01/05 12:04:49;;;;;;;2.53;1.90;;;21.80;39.00;;;;;;5014216;28;20022;-81
2021/01/05 12:07:15;;;;;;;3.33;2.38;;;21.80;38.90;;;;;;5010496;28;20057;-82
2021/01/05 12:09:42;;;;;;;4.50;2.67;;;21.80;38.90;;;;;;5010586;28;20026;-83
2021/01/05 12:12:08;;;;;;;3.47;2.72;;;21.90;38.80;;;;;;4988775;28;20041;-83
2021/01/05 12:14:34;;;;;;;2.97;2.40;;;21.90;38.90;;;;;;4994130;28;20033;-82
2021/01/05 12:17:04;;;;;;;3.13;2.42;;;21.90;38.90;;;;;;5001042;28;20057;-83
2021/01/05 12:19:33;;;;;;;4.75;2.60;;;21.90;39.60;;;;;;5010390;28;20480;-81
2021/01/05 12:22:03;;;;;;;3.70;2.55;;;21.90;39.00;;;;;;5015714;28;20080;-82
2021/01/05 12:24:30;;;;;;;4.97;2.30;;;21.90;39.20;;;;;;5000589;28;20106;-82
2021/01/05 12:26:58;;;;;;;4.15;2.25;;;21.90;39.30;;;;;;5012251;28;20494;-83
2021/01/05 12:29:26;;;;;;;2.28;2.08;;;21.80;39.80;;;;;;4992172;28;20385;-81
2021/01/05 12:32:03;;;;;;;3.80;2.47;;;21.80;39.30;;;;;;5027864;28;20389;-83
2021/01/05 12:34:32;;;;;;;3.25;2.42;;;21.80;39.50;;;;;;5013066;28;20109;-83
2021/01/05 12:37:06;;;;;;;2.70;2.28;;;21.80;39.50;;;;;;5015358;28;20022;-82
2021/01/05 12:39:33;;;;;;;4.25;2.78;;;21.70;39.60;;;;;;4992235;28;20108;-82
2021/01/05 12:42:05;;;;;;;4.63;2.75;;;21.70;39.70;;;;;;5013459;28;20530;-82
2021/01/05 12:44:31;;;;;;;3.30;2.63;;;21.70;39.70;;;;;;4993452;28;20030;-82
2021/01/05 12:46:57;;;;;;;4.13;2.28;;;21.60;39.90;;;;;;4990690;28;20037;-83
2021/01/05 12:49:23;;;;;;;4.13;2.28;;;21.50;39.90;;;;;;4992447;28;20042;-82
2021/01/05 12:51:50;;;;;;;4.25;1.98;;;21.40;39.90;;;;;;4991639;28;20030;-83
2021/01/05 12:54:19;;;;;;;3.60;2.15;;;21.40;39.80;;;;;;5011394;28;20029;-84
2021/01/05 12:56:45;;;;;;;2.30;2.10;;;21.40;39.90;;;;;;4997104;28;20026;-83
2021/01/05 12:59:15;;;;;;;2.38;2.10;;;21.40;39.80;;;;;;4994726;28;20079;-84
2021/01/05 13:01:40;;;;;;;2.70;2.42;;;21.40;40.00;;;;;;5014448;28;20055;-83